Time;durP1;ratioP1;P1;durP2;ratioP2;P2;SDS_P1;SDS_P2;PMS_P1;PMS_P2;Temp;Humidity;BMP_temperature;BMP_pressure;BME280_temperature;BME280_humidity;BME280_pressure;Samples;Min_cycle;Max_cycle;Signal;HPM_P1;HPM_P2
2023/12/06 00:01:53;;;;;;;93.88;39.50;;;;;;;;;;5028396;28;20077;-74
2023/12/06 00:04:20;;;;;;;96.40;39.40;;;;;;;;;;5027753;28;20052;-77
2023/12/06 00:06:47;;;;;;;86.55;38.95;;;;;;;;;;5028024;28;20670;-75
2023/12/06 00:09:16;;;;;;;81.97;36.30;;;;;;;;;;5029652;28;20438;-76
2023/12/06 00:11:43;;;;;;;84.55;38.90;;;;;;;;;;5030895;28;20057;-75
2023/12/06 00:14:09;;;;;;;81.63;36.80;;;;;;;;;;5028907;28;20056;-74
2023/12/06 00:16:39;;;;;;;84.28;39.55;;;;;;;;;;5027650;28;20084;-76
2023/12/06 00:19:06;;;;;;;90.68;39.72;;;;;;;;;;5028475;28;20053;-76
2023/12/06 00:21:33;;;;;;;77.55;36.67;;;;;;;;;;5014377;28;20044;-76
2023/12/06 00:24:00;;;;;;;98.07;38.42;;;;;;;;;;5024131;28;20056;-74
2023/12/06 00:26:26;;;;;;;84.05;38.35;;;;;;;;;;5027774;28;20056;-74
2023/12/06 00:28:53;;;;;;;86.25;39.05;;;;;;;;;;5027412;28;20049;-74
2023/12/06 00:31:19;;;;;;;86.28;40.72;;;;;;;;;;5026303;28;20049;-74
2023/12/06 00:33:46;;;;;;;91.72;38.63;;;;;;;;;;5030493;28;20140;-75
2023/12/06 00:36:13;;;;;;;92.22;40.45;;;;;;;;;;5030175;28;20041;-74
2023/12/06 00:38:39;;;;;;;79.18;37.95;;;;;;;;;;5028099;28;20556;-75
2023/12/06 00:41:05;;;;;;;91.75;39.13;;;;;;;;;;5027052;28;20061;-75
2023/12/06 00:43:32;;;;;;;82.43;39.25;;;;;;;;;;5027084;28;20056;-74
2023/12/06 00:46:01;;;;;;;86.25;40.22;;;;;;;;;;5025871;28;20103;-75
2023/12/06 00:48:28;;;;;;;87.85;35.63;;;;;;;;;;5027422;28;20184;-75
2023/12/06 00:50:55;;;;;;;94.53;39.17;;;;;;;;;;5023431;28;20053;-75
2023/12/06 00:53:21;;;;;;;98.45;38.30;;;;;;;;;;5026786;28;20107;-75
2023/12/06 00:55:47;;;;;;;84.88;37.55;;;;;;;;;;5027976;28;20056;-76
2023/12/06 00:58:14;;;;;;;93.10;39.17;;;;;;;;;;5030956;28;20119;-75
2023/12/06 01:00:40;;;;;;;88.30;40.47;;;;;;;;;;5029242;28;20551;-74
2023/12/06 01:03:07;;;;;;;86.60;38.05;;;;;;;;;;5025560;28;20053;-74
2023/12/06 01:05:33;;;;;;;83.60;36.05;;;;;;;;;;5027596;28;20045;-74
2023/12/06 01:08:00;;;;;;;96.68;38.75;;;;;;;;;;5026529;28;20045;-75
2023/12/06 01:10:26;;;;;;;78.35;35.50;;;;;;;;;;5027706;28;20052;-74
2023/12/06 01:12:53;;;;;;;86.05;39.45;;;;;;;;;;5026617;28;20072;-74
2023/12/06 01:15:19;;;;;;;90.63;39.53;;;;;;;;;;5027074;28;20559;-75
2023/12/06 01:17:46;;;;;;;92.65;40.88;;;;;;;;;;5026191;28;20053;-74
2023/12/06 01:20:12;;;;;;;88.78;39.08;;;;;;;;;;5028328;28;20095;-75
2023/12/06 01:22:39;;;;;;;88.80;38.30;;;;;;;;;;5029822;28;20053;-76
2023/12/06 01:25:06;;;;;;;109.85;39.75;;;;;;;;;;5028015;28;20049;-75
2023/12/06 01:27:35;;;;;;;96.85;39.78;;;;;;;;;;5029975;28;20049;-75
2023/12/06 01:30:02;;;;;;;86.03;38.65;;;;;;;;;;5029131;28;20120;-76
2023/12/06 01:32:38;;;;;;;83.68;39.40;;;;;;;;;;5026882;28;20056;-74
2023/12/06 01:35:04;;;;;;;102.95;39.95;;;;;;;;;;5026013;28;20524;-74
2023/12/06 01:37:33;;;;;;;88.40;38.95;;;;;;;;;;5026684;28;20060;-73
2023/12/06 01:40:00;;;;;;;89.38;38.15;;;;;;;;;;5026578;28;20045;-74
2023/12/06 01:42:26;;;;;;;93.43;39.20;;;;;;;;;;5026515;28;20045;-73
2023/12/06 01:44:53;;;;;;;91.05;39.97;;;;;;;;;;5026780;28;20072;-74
2023/12/06 01:47:24;;;;;;;93.05;39.72;;;;;;;;;;5026385;28;20083;-74
2023/12/06 01:49:52;;;;;;;91.25;37.75;;;;;;;;;;5026279;28;20053;-74
2023/12/06 01:52:18;;;;;;;97.70;40.95;;;;;;;;;;5025896;28;20049;-74
2023/12/06 01:54:45;;;;;;;91.78;38.03;;;;;;;;;;5023464;28;20088;-74
2023/12/06 01:57:11;;;;;;;88.00;38.60;;;;;;;;;;5023558;28;20050;-75
2023/12/06 01:59:38;;;;;;;93.75;41.15;;;;;;;;;;5027116;28;20045;-74
2023/12/06 02:02:05;;;;;;;97.15;36.65;;;;;;;;;;5025632;28;20037;-74
2023/12/06 02:04:35;;;;;;;98.88;39.95;;;;;;;;;;5025767;28;20100;-74
2023/12/06 02:07:01;;;;;;;85.32;35.50;;;;;;;;;;5025677;28;20056;-74
2023/12/06 02:09:28;;;;;;;93.93;38.75;;;;;;;;;;5029739;28;20069;-75
2023/12/06 02:11:55;;;;;;;84.03;37.20;;;;;;;;;;5029290;28;20089;-75
2023/12/06 02:14:24;;;;;;;99.38;38.72;;;;;;;;;;5030368;28;20042;-74
2023/12/06 02:16:51;;;;;;;90.90;38.55;;;;;;;;;;5029760;28;20056;-73
2023/12/06 02:19:22;;;;;;;85.25;39.13;;;;;;;;;;5030402;28;20058;-74
2023/12/06 02:21:49;;;;;;;98.03;40.15;;;;;;;;;;5029329;28;20064;-74
2023/12/06 02:24:16;;;;;;;91.65;39.60;;;;;;;;;;5029832;28;20116;-74
2023/12/06 02:26:43;;;;;;;88.43;37.90;;;;;;;;;;5030187;28;20367;-74
2023/12/06 02:29:12;;;;;;;96.25;40.55;;;;;;;;;;5029374;28;20146;-76
2023/12/06 02:31:38;;;;;;;94.85;38.33;;;;;;;;;;5029569;28;20052;-74
2023/12/06 02:34:09;;;;;;;87.30;38.20;;;;;;;;;;5029887;28;20119;-74
2023/12/06 02:36:37;;;;;;;79.07;37.05;;;;;;;;;;5028755;28;20047;-75
2023/12/06 02:39:04;;;;;;;95.68;39.17;;;;;;;;;;5019826;28;20049;-74
2023/12/06 02:41:31;;;;;;;88.85;37.33;;;;;;;;;;5030027;28;20500;-74
2023/12/06 02:43:57;;;;;;;93.65;39.47;;;;;;;;;;5029151;28;20053;-74
2023/12/06 02:46:24;;;;;;;96.82;39.78;;;;;;;;;;5029919;28;20080;-74
2023/12/06 02:48:51;;;;;;;89.60;38.63;;;;;;;;;;5028860;28;20414;-74
2023/12/06 02:51:17;;;;;;;85.25;37.08;;;;;;;;;;5029275;28;20076;-74
2023/12/06 02:53:44;;;;;;;84.38;35.40;;;;;;;;;;5029138;28;20057;-73
2023/12/06 02:56:10;;;;;;;85.50;37.72;;;;;;;;;;5023517;28;20726;-75
2023/12/06 02:58:37;;;;;;;99.80;40.70;;;;;;;;;;5029368;28;20085;-74
2023/12/06 03:01:03;;;;;;;100.43;39.65;;;;;;;;;;5028820;28;20045;-74
2023/12/06 03:03:30;;;;;;;91.03;39.33;;;;;;;;;;5029553;28;20049;-74
2023/12/06 03:05:56;;;;;;;90.00;38.47;;;;;;;;;;5027578;28;20057;-73
2023/12/06 03:08:23;;;;;;;87.53;37.60;;;;;;;;;;5029508;28;20052;-75
2023/12/06 03:10:49;;;;;;;85.03;36.83;;;;;;;;;;5028879;28;20057;-74
2023/12/06 03:13:16;;;;;;;91.63;40.47;;;;;;;;;;5029040;28;20107;-74
2023/12/06 03:15:42;;;;;;;90.75;37.70;;;;;;;;;;5029147;28;20042;-75
2023/12/06 03:18:09;;;;;;;89.20;37.10;;;;;;;;;;5032066;28;20128;-74
2023/12/06 03:20:38;;;;;;;94.85;41.38;;;;;;;;;;5029603;28;20057;-74
2023/12/06 03:23:05;;;;;;;91.35;37.22;;;;;;;;;;5028509;28;20045;-73
2023/12/06 03:25:32;;;;;;;90.20;38.30;;;;;;;;;;5029129;28;20518;-75
2023/12/06 03:27:58;;;;;;;92.47;38.97;;;;;;;;;;5028798;28;20052;-74
2023/12/06 03:30:25;;;;;;;87.70;37.80;;;;;;;;;;5028905;28;20054;-74
2023/12/06 03:33:02;;;;;;;85.38;37.90;;;;;;;;;;5025505;28;20069;-74
2023/12/06 03:35:28;;;;;;;103.00;41.00;;;;;;;;;;5028501;28;20049;-75
2023/12/06 03:37:55;;;;;;;102.93;40.08;;;;;;;;;;5027981;28;20075;-75
2023/12/06 03:40:22;;;;;;;96.80;38.95;;;;;;;;;;5032824;28;20057;-76
2023/12/06 03:42:48;;;;;;;91.63;38.22;;;;;;;;;;5032616;28;20667;-73
2023/12/06 03:45:15;;;;;;;91.65;38.63;;;;;;;;;;5028580;28;20050;-73
2023/12/06 03:47:41;;;;;;;93.50;38.20;;;;;;;;;;5028312;28;20069;-73
2023/12/06 03:50:08;;;;;;;98.00;40.10;;;;;;;;;;5029030;28;20053;-74
2023/12/06 03:52:34;;;;;;;103.10;38.03;;;;;;;;;;5027733;28;20492;-73
2023/12/06 03:55:00;;;;;;;92.43;39.53;;;;;;;;;;5027317;28;20773;-73
2023/12/06 03:57:29;;;;;;;95.72;39.63;;;;;;;;;;5023515;28;20053;-74
2023/12/06 03:59:56;;;;;;;100.45;36.78;;;;;;;;;;5032633;28;20049;-75
2023/12/06 04:02:23;;;;;;;98.05;39.97;;;;;;;;;;5028368;28;20049;-76
2023/12/06 04:04:49;;;;;;;93.85;39.75;;;;;;;;;;5033927;28;20056;-74
2023/12/06 04:07:16;;;;;;;95.68;38.40;;;;;;;;;;5031235;28;20049;-74
2023/12/06 04:09:42;;;;;;;101.15;40.58;;;;;;;;;;5029261;28;20049;-74
2023/12/06 04:12:09;;;;;;;96.45;38.67;;;;;;;;;;5027832;28;20628;-74
2023/12/06 04:14:35;;;;;;;91.70;38.63;;;;;;;;;;5028063;28;20501;-76
2023/12/06 04:17:02;;;;;;;100.22;38.67;;;;;;;;;;5027850;28;20079;-73
2023/12/06 04:19:33;;;;;;;96.22;38.67;;;;;;;;;;5028564;28;20130;-74
2023/12/06 04:21:59;;;;;;;99.07;40.67;;;;;;;;;;5027465;28;20888;-75
2023/12/06 04:24:26;;;;;;;92.03;38.80;;;;;;;;;;5027715;28;20108;-76
2023/12/06 04:26:52;;;;;;;105.60;41.60;;;;;;;;;;5030485;28;20258;-74
2023/12/06 04:29:18;;;;;;;82.32;36.55;;;;;;;;;;5031426;28;20202;-76
2023/12/06 04:31:45;;;;;;;95.55;38.33;;;;;;;;;;5026517;28;20084;-74
2023/12/06 04:34:12;;;;;;;97.63;39.90;;;;;;;;;;5027945;28;20818;-74
2023/12/06 04:36:40;;;;;;;86.25;35.72;;;;;;;;;;5026248;28;20504;-75
2023/12/06 04:39:06;;;;;;;110.72;41.70;;;;;;;;;;5027836;28;20080;-73
2023/12/06 04:41:33;;;;;;;96.88;38.95;;;;;;;;;;5027263;28;20125;-73
2023/12/06 04:43:59;;;;;;;91.15;37.55;;;;;;;;;;5027895;28;21803;-74
2023/12/06 04:46:25;;;;;;;110.95;42.15;;;;;;;;;;5027207;28;20069;-73
2023/12/06 04:48:52;;;;;;;104.03;40.78;;;;;;;;;;5027227;28;20049;-74
2023/12/06 04:51:19;;;;;;;101.68;40.17;;;;;;;;;;5026926;28;20037;-72
2023/12/06 04:53:45;;;;;;;98.07;41.13;;;;;;;;;;5027733;28;20104;-74
2023/12/06 04:56:12;;;;;;;102.68;38.42;;;;;;;;;;5023480;28;20053;-73
2023/12/06 04:58:38;;;;;;;94.93;40.00;;;;;;;;;;5027456;28;20057;-73
2023/12/06 05:01:05;;;;;;;93.78;37.95;;;;;;;;;;5026850;28;20083;-74
2023/12/06 05:03:32;;;;;;;94.03;38.53;;;;;;;;;;5027143;28;20604;-73
2023/12/06 05:05:58;;;;;;;104.80;40.45;;;;;;;;;;5026942;28;20501;-74
2023/12/06 05:08:25;;;;;;;110.85;41.03;;;;;;;;;;5026182;28;20046;-73
2023/12/06 05:10:52;;;;;;;96.03;39.47;;;;;;;;;;5027310;28;20049;-74
2023/12/06 05:13:18;;;;;;;102.55;42.30;;;;;;;;;;5026984;28;20112;-74
2023/12/06 05:15:45;;;;;;;101.75;42.65;;;;;;;;;;5027612;28;20049;-73
2023/12/06 05:18:12;;;;;;;92.68;37.92;;;;;;;;;;5026507;28;20048;-76
2023/12/06 05:20:38;;;;;;;95.93;40.17;;;;;;;;;;5027086;28;20057;-73
2023/12/06 05:23:05;;;;;;;101.90;39.78;;;;;;;;;;5026161;28;20049;-74
2023/12/06 05:25:32;;;;;;;99.82;39.42;;;;;;;;;;5027080;28;20041;-75
2023/12/06 05:27:59;;;;;;;98.03;40.63;;;;;;;;;;5026265;28;20049;-74
2023/12/06 05:30:25;;;;;;;96.30;39.40;;;;;;;;;;5027216;28;20050;-75
2023/12/06 05:32:52;;;;;;;98.70;40.10;;;;;;;;;;5024762;28;20091;-73
2023/12/06 05:35:18;;;;;;;103.68;41.75;;;;;;;;;;5026643;28;20056;-74
2023/12/06 05:37:45;;;;;;;104.32;42.30;;;;;;;;;;5025211;28;20049;-73
2023/12/06 05:40:12;;;;;;;102.32;40.72;;;;;;;;;;5025678;28;20059;-73
2023/12/06 05:42:39;;;;;;;99.10;41.00;;;;;;;;;;5024694;28;20080;-74
2023/12/06 05:45:06;;;;;;;97.40;38.28;;;;;;;;;;5030916;28;20052;-73
2023/12/06 05:47:32;;;;;;;109.47;40.22;;;;;;;;;;5030543;28;20136;-77
2023/12/06 05:49:59;;;;;;;97.40;40.25;;;;;;;;;;5030676;28;20065;-74
2023/12/06 05:52:25;;;;;;;111.30;42.45;;;;;;;;;;5030755;28;20056;-73
2023/12/06 05:54:52;;;;;;;107.57;40.15;;;;;;;;;;5030397;28;20042;-73
2023/12/06 05:57:18;;;;;;;109.15;45.20;;;;;;;;;;5030312;28;20063;-73
2023/12/06 05:59:45;;;;;;;102.45;40.78;;;;;;;;;;5030955;28;20041;-76
2023/12/06 06:02:11;;;;;;;100.40;42.22;;;;;;;;;;5030532;28;20037;-75
2023/12/06 06:04:38;;;;;;;123.63;41.58;;;;;;;;;;5030686;28;20049;-74
2023/12/06 06:07:05;;;;;;;116.25;41.63;;;;;;;;;;5029899;28;20065;-73
2023/12/06 06:09:31;;;;;;;121.28;42.25;;;;;;;;;;5029262;28;20091;-74
2023/12/06 06:11:58;;;;;;;123.63;45.60;;;;;;;;;;5030214;28;20490;-74
2023/12/06 06:14:24;;;;;;;116.40;43.15;;;;;;;;;;5030426;28;20072;-74
2023/12/06 06:16:51;;;;;;;111.57;44.58;;;;;;;;;;5028595;28;20044;-73
2023/12/06 06:19:17;;;;;;;114.22;42.65;;;;;;;;;;5030304;28;20088;-76
2023/12/06 06:21:44;;;;;;;108.53;42.90;;;;;;;;;;5032038;28;20045;-74
2023/12/06 06:24:10;;;;;;;116.55;44.42;;;;;;;;;;5035447;28;20101;-75
2023/12/06 06:26:36;;;;;;;119.47;42.95;;;;;;;;;;5030065;28;20132;-73
2023/12/06 06:29:03;;;;;;;110.53;40.90;;;;;;;;;;5030963;28;20050;-76
2023/12/06 06:31:30;;;;;;;109.38;42.80;;;;;;;;;;5032852;28;20057;-75
2023/12/06 06:34:01;;;;;;;108.50;42.45;;;;;;;;;;5032823;28;20107;-75
2023/12/06 06:36:28;;;;;;;110.05;44.38;;;;;;;;;;5030192;28;20135;-74
2023/12/06 06:38:57;;;;;;;120.07;45.38;;;;;;;;;;5029448;28;20442;-72
2023/12/06 06:41:27;;;;;;;119.13;46.58;;;;;;;;;;5029886;28;20123;-78
2023/12/06 06:43:53;;;;;;;126.38;45.22;;;;;;;;;;5030338;28;20506;-72
2023/12/06 06:46:20;;;;;;;124.68;45.30;;;;;;;;;;5034013;28;20038;-77
2023/12/06 06:48:48;;;;;;;128.45;45.17;;;;;;;;;;5031688;28;20037;-74
2023/12/06 06:51:14;;;;;;;106.47;41.13;;;;;;;;;;5029951;28;20053;-76
2023/12/06 06:53:41;;;;;;;109.22;43.08;;;;;;;;;;5027084;28;20048;-76
2023/12/06 06:56:07;;;;;;;112.60;46.65;;;;;;;;;;5021685;28;20060;-71
2023/12/06 06:58:36;;;;;;;112.85;41.72;;;;;;;;;;5028977;28;20060;-72
2023/12/06 07:01:02;;;;;;;109.05;44.25;;;;;;;;;;5029944;28;20555;-73
2023/12/06 07:03:31;;;;;;;101.43;41.78;;;;;;;;;;5029074;28;20049;-74
2023/12/06 07:06:01;;;;;;;122.78;46.40;;;;;;;;;;5030264;28;20049;-74
2023/12/06 07:08:29;;;;;;;125.15;48.25;;;;;;;;;;5032330;28;20045;-74
2023/12/06 07:10:56;;;;;;;115.72;45.17;;;;;;;;;;5032522;28;20050;-73
2023/12/06 07:13:22;;;;;;;115.53;44.65;;;;;;;;;;5029739;28;20115;-74
2023/12/06 07:15:49;;;;;;;114.75;42.42;;;;;;;;;;5028417;28;20053;-73
2023/12/06 07:18:16;;;;;;;133.07;48.97;;;;;;;;;;5028806;28;20498;-73
2023/12/06 07:20:42;;;;;;;117.78;44.83;;;;;;;;;;5029746;28;20053;-71
2023/12/06 07:23:14;;;;;;;117.40;43.65;;;;;;;;;;5028560;28;20108;-74
2023/12/06 07:25:41;;;;;;;115.13;45.42;;;;;;;;;;5029851;28;20084;-74
2023/12/06 07:28:08;;;;;;;126.10;45.88;;;;;;;;;;5028720;28;20045;-71
2023/12/06 07:30:35;;;;;;;111.45;44.30;;;;;;;;;;5029890;28;20041;-76
2023/12/06 07:33:01;;;;;;;123.13;47.35;;;;;;;;;;5033058;28;20038;-74
2023/12/06 07:35:28;;;;;;;122.05;45.17;;;;;;;;;;5027291;28;20053;-72
2023/12/06 07:37:55;;;;;;;123.57;46.80;;;;;;;;;;5026184;28;20065;-73
2023/12/06 07:40:22;;;;;;;127.40;48.22;;;;;;;;;;5027686;28;20409;-73
2023/12/06 07:42:48;;;;;;;121.35;44.47;;;;;;;;;;5028815;28;20069;-73
2023/12/06 07:45:15;;;;;;;128.18;47.75;;;;;;;;;;5028274;28;20122;-74
2023/12/06 07:47:41;;;;;;;124.47;47.75;;;;;;;;;;5028275;28;20108;-75
2023/12/06 07:50:08;;;;;;;116.05;44.30;;;;;;;;;;5028579;28;20468;-72
2023/12/06 07:52:36;;;;;;;125.47;46.38;;;;;;;;;;5028273;28;20049;-75
2023/12/06 07:55:06;;;;;;;120.80;45.67;;;;;;;;;;5027943;28;20045;-74
2023/12/06 07:57:34;;;;;;;124.13;47.57;;;;;;;;;;5021961;28;20103;-73
2023/12/06 08:00:00;;;;;;;124.32;45.97;;;;;;;;;;5028400;28;20057;-77
2023/12/06 08:02:27;;;;;;;115.47;44.70;;;;;;;;;;5027833;28;20123;-73
2023/12/06 08:04:53;;;;;;;125.82;46.15;;;;;;;;;;5028080;28;20053;-73
2023/12/06 08:07:20;;;;;;;127.05;45.03;;;;;;;;;;5027178;28;20096;-75
2023/12/06 08:09:49;;;;;;;109.55;43.00;;;;;;;;;;5028804;28;20478;-74
2023/12/06 08:12:16;;;;;;;118.22;44.63;;;;;;;;;;5026462;28;20060;-73
2023/12/06 08:14:43;;;;;;;117.18;47.15;;;;;;;;;;5028595;28;20050;-73
2023/12/06 08:17:10;;;;;;;112.57;44.45;;;;;;;;;;5027391;28;20056;-75
2023/12/06 08:19:37;;;;;;;108.05;44.75;;;;;;;;;;5028492;28;20050;-73
2023/12/06 08:22:04;;;;;;;127.25;47.70;;;;;;;;;;5027502;28;20555;-74
2023/12/06 08:24:30;;;;;;;114.90;42.20;;;;;;;;;;5028125;28;20055;-74
2023/12/06 08:26:58;;;;;;;109.88;44.92;;;;;;;;;;5021985;28;20049;-73
2023/12/06 08:29:25;;;;;;;111.15;46.78;;;;;;;;;;5026272;28;20041;-73
2023/12/06 08:31:51;;;;;;;114.75;43.03;;;;;;;;;;5025885;28;20052;-78
2023/12/06 08:34:18;;;;;;;107.88;42.97;;;;;;;;;;5027525;28;20071;-72
2023/12/06 08:36:45;;;;;;;119.70;45.08;;;;;;;;;;5027218;28;20597;-73
2023/12/06 08:39:12;;;;;;;121.88;45.22;;;;;;;;;;5025684;28;20045;-73
2023/12/06 08:41:38;;;;;;;113.45;47.05;;;;;;;;;;5022783;28;20468;-73
2023/12/06 08:44:05;;;;;;;118.45;45.70;;;;;;;;;;5025078;28;20049;-75
2023/12/06 08:46:33;;;;;;;119.75;45.78;;;;;;;;;;5030020;28;20514;-72
2023/12/06 08:49:00;;;;;;;119.63;43.85;;;;;;;;;;5030024;28;20406;-71
2023/12/06 08:51:27;;;;;;;101.95;43.53;;;;;;;;;;5033305;28;20041;-70
2023/12/06 08:53:54;;;;;;;114.97;44.63;;;;;;;;;;5029578;28;20052;-69
2023/12/06 08:56:20;;;;;;;109.47;42.90;;;;;;;;;;5033300;28;20045;-70
2023/12/06 08:58:47;;;;;;;107.95;44.03;;;;;;;;;;5033577;28;20050;-71
2023/12/06 09:01:13;;;;;;;103.07;44.75;;;;;;;;;;5031442;28;20048;-70
2023/12/06 09:03:40;;;;;;;116.63;44.92;;;;;;;;;;5031798;28;20049;-72
2023/12/06 09:06:07;;;;;;;114.38;43.45;;;;;;;;;;5028129;28;20045;-72
2023/12/06 09:08:34;;;;;;;111.03;42.97;;;;;;;;;;5027289;28;21438;-69
2023/12/06 09:11:01;;;;;;;111.47;44.97;;;;;;;;;;5026593;28;20053;-70
2023/12/06 09:13:27;;;;;;;111.78;43.90;;;;;;;;;;5029245;28;20125;-74
2023/12/06 09:15:55;;;;;;;100.50;41.88;;;;;;;;;;5027954;28;20099;-70
2023/12/06 09:18:21;;;;;;;102.65;42.33;;;;;;;;;;5026629;28;20486;-71
2023/12/06 09:20:48;;;;;;;98.90;43.10;;;;;;;;;;5027637;28;20041;-70
2023/12/06 09:23:14;;;;;;;110.78;43.00;;;;;;;;;;5031548;28;20413;-71
2023/12/06 09:25:41;;;;;;;110.05;45.00;;;;;;;;;;5034508;28;20046;-72
2023/12/06 09:28:07;;;;;;;105.72;41.80;;;;;;;;;;5032455;28;20268;-70
2023/12/06 09:30:34;;;;;;;102.97;42.95;;;;;;;;;;5028150;28;20061;-76
2023/12/06 09:33:00;;;;;;;106.05;42.65;;;;;;;;;;5026696;28;20050;-73
2023/12/06 09:35:27;;;;;;;106.88;44.35;;;;;;;;;;5026975;28;20046;-74
2023/12/06 09:37:54;;;;;;;105.68;44.13;;;;;;;;;;5027161;28;20557;-71
2023/12/06 09:40:20;;;;;;;108.55;44.47;;;;;;;;;;5027883;28;20064;-77
2023/12/06 09:42:50;;;;;;;106.75;43.17;;;;;;;;;;5026838;28;20072;-77
2023/12/06 09:45:18;;;;;;;113.47;42.40;;;;;;;;;;5028975;28;20132;-72
2023/12/06 09:47:45;;;;;;;102.45;39.28;;;;;;;;;;5028508;28;20049;-76
2023/12/06 09:50:11;;;;;;;99.57;41.22;;;;;;;;;;5033651;28;20054;-76
2023/12/06 09:52:38;;;;;;;105.63;43.10;;;;;;;;;;5029678;28;20045;-75
2023/12/06 09:55:05;;;;;;;94.65;40.55;;;;;;;;;;5028720;28;20056;-74
2023/12/06 09:57:31;;;;;;;102.30;43.55;;;;;;;;;;5027158;28;20060;-74
2023/12/06 09:59:58;;;;;;;108.20;41.38;;;;;;;;;;5027055;28;20046;-77
2023/12/06 10:02:24;;;;;;;105.70;42.03;;;;;;;;;;5028163;28;20057;-77
2023/12/06 10:04:53;;;;;;;95.90;40.83;;;;;;;;;;5028411;28;20053;-76
2023/12/06 10:07:20;;;;;;;95.72;40.15;;;;;;;;;;5027516;28;20525;-75
2023/12/06 10:09:48;;;;;;;95.75;40.95;;;;;;;;;;5026635;28;20751;-75
2023/12/06 10:12:14;;;;;;;99.38;40.15;;;;;;;;;;5026665;28;20137;-76
2023/12/06 10:14:41;;;;;;;91.85;39.60;;;;;;;;;;5023017;28;21645;-73
2023/12/06 10:17:10;;;;;;;104.50;40.95;;;;;;;;;;5028509;28;20045;-73
2023/12/06 10:19:37;;;;;;;99.47;39.70;;;;;;;;;;5027958;28;20052;-76
2023/12/06 10:22:04;;;;;;;105.45;41.65;;;;;;;;;;5027409;28;20393;-78
2023/12/06 10:24:31;;;;;;;96.00;42.15;;;;;;;;;;5028197;28;20128;-77
2023/12/06 10:27:02;;;;;;;111.78;41.42;;;;;;;;;;5028047;28;20050;-77
2023/12/06 10:29:32;;;;;;;99.30;40.85;;;;;;;;;;5031511;28;20103;-73
2023/12/06 10:31:58;;;;;;;93.93;39.97;;;;;;;;;;5031383;28;20100;-72
2023/12/06 10:34:27;;;;;;;103.22;40.03;;;;;;;;;;5030830;28;20047;-72
2023/12/06 10:36:55;;;;;;;107.93;43.22;;;;;;;;;;5033374;28;20091;-75
2023/12/06 10:39:22;;;;;;;111.63;43.80;;;;;;;;;;5037326;28;20050;-75
2023/12/06 10:41:50;;;;;;;102.50;39.78;;;;;;;;;;5032935;28;20474;-73
2023/12/06 10:44:16;;;;;;;112.78;41.33;;;;;;;;;;5032190;28;20410;-75
2023/12/06 10:46:45;;;;;;;108.50;42.30;;;;;;;;;;5035168;28;20480;-75
2023/12/06 10:49:21;;;;;;;102.57;42.05;;;;;;;;;;5028246;28;20080;-72
2023/12/06 10:51:48;;;;;;;100.35;40.55;;;;;;;;;;5030641;28;20073;-73
2023/12/06 10:54:15;;;;;;;104.55;40.25;;;;;;;;;;5029130;28;20559;-73
2023/12/06 10:56:42;;;;;;;102.15;40.53;;;;;;;;;;5028802;28;20057;-71
2023/12/06 10:59:10;;;;;;;101.97;42.17;;;;;;;;;;5034496;28;20163;-71
2023/12/06 11:01:36;;;;;;;112.00;41.80;;;;;;;;;;5029398;28;20041;-74
2023/12/06 11:04:03;;;;;;;109.47;39.85;;;;;;;;;;5031937;28;20111;-74
2023/12/06 11:06:50;;;;;;;107.07;43.40;;;;;;;;;;5029865;28;20049;-76
2023/12/06 11:09:32;;;;;;;104.10;40.42;;;;;;;;;;5026350;28;20049;-72
2023/12/06 11:12:01;;;;;;;104.10;42.92;;;;;;;;;;5030045;28;20054;-77
2023/12/06 11:14:40;;;;;;;92.53;39.83;;;;;;;;;;5033067;28;20046;-77
2023/12/06 11:17:15;;;;;;;108.03;40.15;;;;;;;;;;5030642;28;20049;-76
2023/12/06 11:19:42;;;;;;;101.00;41.47;;;;;;;;;;5029878;28;20053;-75
2023/12/06 11:22:09;;;;;;;102.75;40.22;;;;;;;;;;5031481;28;20048;-73
2023/12/06 11:24:36;;;;;;;102.18;41.15;;;;;;;;;;5029944;28;20069;-78
2023/12/06 11:27:03;;;;;;;97.57;41.03;;;;;;;;;;5028264;28;20132;-77
2023/12/06 11:29:30;;;;;;;106.30;40.47;;;;;;;;;;5030081;28;20060;-78
2023/12/06 11:31:57;;;;;;;104.43;42.55;;;;;;;;;;5027711;28;20540;-78
2023/12/06 11:34:33;;;;;;;102.63;41.33;;;;;;;;;;5031429;28;20448;-77
2023/12/06 11:37:03;;;;;;;93.05;37.35;;;;;;;;;;5028928;28;20056;-75
2023/12/06 11:39:31;;;;;;;97.13;40.17;;;;;;;;;;5030566;28;20513;-75
2023/12/06 11:41:58;;;;;;;85.63;38.53;;;;;;;;;;5028324;28;20049;-77
2023/12/06 11:44:25;;;;;;;108.32;41.95;;;;;;;;;;5029563;28;20053;-75
2023/12/06 11:46:53;;;;;;;110.78;43.05;;;;;;;;;;5028740;28;20046;-75
2023/12/06 11:49:23;;;;;;;110.95;41.10;;;;;;;;;;5026549;28;20552;-76
2023/12/06 11:51:59;;;;;;;103.05;41.63;;;;;;;;;;5029318;28;20265;-76
2023/12/06 11:54:32;;;;;;;102.82;42.45;;;;;;;;;;5029104;28;20632;-75
2023/12/06 11:57:06;;;;;;;103.10;44.08;;;;;;;;;;5029826;28;20646;-74
2023/12/06 11:59:33;;;;;;;97.40;39.03;;;;;;;;;;5027959;28;20501;-73
2023/12/06 12:01:59;;;;;;;97.53;39.60;;;;;;;;;;5025984;28;20550;-78
2023/12/06 12:04:26;;;;;;;105.47;40.03;;;;;;;;;;5020949;28;20143;-78
2023/12/06 12:06:53;;;;;;;102.82;43.03;;;;;;;;;;5027338;28;20084;-77
2023/12/06 12:09:21;;;;;;;105.55;41.95;;;;;;;;;;5029070;28;20054;-78
2023/12/06 12:11:47;;;;;;;94.20;38.17;;;;;;;;;;5024874;28;20402;-77
2023/12/06 12:14:13;;;;;;;95.38;39.45;;;;;;;;;;5027549;28;21337;-78
2023/12/06 12:16:41;;;;;;;95.80;38.85;;;;;;;;;;5027251;28;20049;-77
2023/12/06 12:19:08;;;;;;;93.55;39.22;;;;;;;;;;5013190;28;20041;-77
2023/12/06 12:21:35;;;;;;;102.00;42.55;;;;;;;;;;5024050;28;20080;-78
2023/12/06 12:24:02;;;;;;;95.47;37.55;;;;;;;;;;5026966;28;20120;-77
2023/12/06 12:26:29;;;;;;;95.72;38.92;;;;;;;;;;5027846;28;20072;-74
2023/12/06 12:28:55;;;;;;;97.65;39.55;;;;;;;;;;5023310;28;20092;-74
2023/12/06 12:31:26;;;;;;;108.53;38.80;;;;;;;;;;5027482;28;20038;-74
2023/12/06 12:33:53;;;;;;;96.10;39.03;;;;;;;;;;5027335;28;20041;-75
2023/12/06 12:36:23;;;;;;;90.97;37.75;;;;;;;;;;5027607;28;20120;-74
2023/12/06 12:38:53;;;;;;;102.57;40.95;;;;;;;;;;5029375;28;20132;-74
2023/12/06 12:41:20;;;;;;;97.63;40.53;;;;;;;;;;5028699;28;20493;-72
2023/12/06 12:43:46;;;;;;;97.88;38.78;;;;;;;;;;5027651;28;20060;-77
2023/12/06 12:46:14;;;;;;;86.47;37.20;;;;;;;;;;5026591;28;20041;-76
2023/12/06 12:48:41;;;;;;;92.88;38.45;;;;;;;;;;5030785;28;20041;-76
2023/12/06 12:51:12;;;;;;;99.63;39.88;;;;;;;;;;5029093;28;20510;-74
2023/12/06 12:53:40;;;;;;;88.35;39.35;;;;;;;;;;5025670;28;20045;-73
2023/12/06 12:56:07;;;;;;;105.32;39.63;;;;;;;;;;5025777;28;20099;-73
2023/12/06 12:58:35;;;;;;;92.70;38.45;;;;;;;;;;5029961;28;20057;-74
2023/12/06 13:01:03;;;;;;;94.72;39.65;;;;;;;;;;5027746;28;20041;-74
2023/12/06 13:03:31;;;;;;;90.82;36.25;;;;;;;;;;5030995;28;20053;-74
2023/12/06 13:05:59;;;;;;;82.10;35.65;;;;;;;;;;5027594;28;20049;-75
2023/12/06 13:08:30;;;;;;;72.80;32.63;;;;;;;;;;5026480;28;20069;-74
2023/12/06 13:10:58;;;;;;;87.22;37.55;;;;;;;;;;5026547;28;20045;-73
2023/12/06 13:13:27;;;;;;;79.00;35.80;;;;;;;;;;5026291;28;20565;-72
2023/12/06 13:15:55;;;;;;;93.80;36.60;;;;;;;;;;5025901;28;20111;-73
2023/12/06 13:18:21;;;;;;;86.47;35.65;;;;;;;;;;5026730;28;20053;-71
2023/12/06 13:20:48;;;;;;;100.45;36.95;;;;;;;;;;5027984;28;20045;-74
2023/12/06 13:23:14;;;;;;;93.75;36.97;;;;;;;;;;5025479;28;20126;-72
2023/12/06 13:25:41;;;;;;;98.20;39.03;;;;;;;;;;5019536;28;20121;-75
2023/12/06 13:28:09;;;;;;;88.53;38.05;;;;;;;;;;5028599;28;20045;-75
2023/12/06 13:30:35;;;;;;;91.50;39.92;;;;;;;;;;5026623;28;20137;-72
2023/12/06 13:33:01;;;;;;;98.80;39.90;;;;;;;;;;5026378;28;20076;-71
2023/12/06 13:35:28;;;;;;;104.10;39.63;;;;;;;;;;5026500;28;20868;-70
2023/12/06 13:37:57;;;;;;;97.93;40.35;;;;;;;;;;5033656;28;20056;-70
2023/12/06 13:40:25;;;;;;;94.43;38.00;;;;;;;;;;5027535;28;20116;-73
2023/12/06 13:42:52;;;;;;;98.95;35.33;;;;;;;;;;5026776;28;20049;-73
2023/12/06 13:45:19;;;;;;;110.45;41.65;;;;;;;;;;5025541;28;20045;-71
2023/12/06 13:47:46;;;;;;;100.72;37.85;;;;;;;;;;5019133;28;20533;-73
2023/12/06 13:50:12;;;;;;;97.97;37.92;;;;;;;;;;5025659;28;20045;-70
2023/12/06 13:52:39;;;;;;;104.10;38.70;;;;;;;;;;5029953;28;20662;-69
2023/12/06 13:55:08;;;;;;;97.05;38.53;;;;;;;;;;5026269;28;20393;-73
2023/12/06 13:57:35;;;;;;;104.70;41.47;;;;;;;;;;5025714;28;20057;-70
2023/12/06 14:00:05;;;;;;;87.20;39.17;;;;;;;;;;5027077;28;20056;-71
2023/12/06 14:02:32;;;;;;;108.00;39.60;;;;;;;;;;5026468;28;20053;-73
2023/12/06 14:05:00;;;;;;;107.93;42.15;;;;;;;;;;5018165;28;20821;-74
2023/12/06 14:07:26;;;;;;;114.35;40.33;;;;;;;;;;5026687;28;20145;-81
2023/12/06 14:09:53;;;;;;;92.63;38.58;;;;;;;;;;5029080;28;20065;-77
2023/12/06 14:12:20;;;;;;;103.57;40.80;;;;;;;;;;5029200;28;20144;-72